Time;durP1;ratioP1;P1;durP2;ratioP2;P2;SDS_P1;SDS_P2;PMS_P1;PMS_P2;Temp;Humidity;BMP_temperature;BMP_pressure;BME280_temperature;BME280_humidity;BME280_pressure;Samples;Min_cycle;Max_cycle;Signal;HPM_P1;HPM_P2
2022/06/05 00:01:43;;;;;;;10.57;7.90;;;;;;;22.32;95.16;100497.72;6242653;22;20011;-71
2022/06/05 00:04:29;;;;;;;9.55;7.32;;;;;;;22.27;94.86;100489.31;6243353;22;20077;-71
2022/06/05 00:07:13;;;;;;;11.65;7.45;;;;;;;22.32;95.21;100494.16;6245027;22;20333;-71
2022/06/05 00:09:48;;;;;;;8.45;6.95;;;;;;;22.31;94.95;100495.19;6244917;22;20336;-71
2022/06/05 00:12:16;;;;;;;8.68;7.68;;;;;;;22.30;95.03;100493.50;6244668;22;20015;-72
2022/06/05 00:14:42;;;;;;;9.40;7.80;;;;;;;22.25;95.03;100476.91;6244347;22;19996;-71
2022/06/05 00:17:21;;;;;;;13.55;9.48;;;;;;;22.31;94.82;100490.56;6243535;23;20011;-71
2022/06/05 00:19:50;;;;;;;10.68;8.65;;;;;;;22.27;94.70;100488.44;6244675;22;20000;-71
2022/06/05 00:22:16;;;;;;;10.32;8.90;;;;;;;22.26;94.83;100482.16;6244709;22;20459;-71
2022/06/05 00:24:41;;;;;;;12.05;8.82;;;;;;;22.12;95.01;100463.19;6244506;22;20016;-71
2022/06/05 00:27:32;;;;;;;10.40;8.73;;;;;;;22.24;94.90;100489.72;6244816;22;20028;-71
2022/06/05 00:30:12;;;;;;;12.20;8.70;;;;;;;22.18;95.24;100473.28;6245119;22;20023;-71
2022/06/05 00:32:48;;;;;;;8.88;8.07;;;;;;;22.09;94.85;100455.41;6244790;22;20000;-71
2022/06/05 00:35:17;;;;;;;10.73;9.02;;;;;;;22.20;95.04;100469.31;6244743;22;20061;-71
2022/06/05 00:38:01;;;;;;;10.63;9.63;;;;;;;22.18;95.06;100471.41;6244414;22;20012;-71
2022/06/05 00:40:32;;;;;;;10.98;9.57;;;;;;;22.15;95.61;100465.50;6244792;22;20023;-72
2022/06/05 00:43:00;;;;;;;12.02;9.88;;;;;;;22.10;95.74;100454.34;6244774;22;20004;-71
2022/06/05 00:45:28;;;;;;;10.88;9.48;;;;;;;22.13;95.63;100465.72;6244529;22;20003;-72
2022/06/05 00:47:54;;;;;;;9.65;8.68;;;;;;;22.09;96.48;100460.88;6244264;22;19996;-71
2022/06/05 00:50:23;;;;;;;10.48;9.38;;;;;;;21.96;96.55;100456.19;6243158;23;20078;-71
2022/06/05 00:52:55;;;;;;;13.10;9.95;;;;;;;22.04;96.61;100477.88;6244503;22;20000;-71
2022/06/05 00:55:22;;;;;;;10.07;9.05;;;;;;;22.00;96.87;100478.47;6244640;22;20070;-73
2022/06/05 00:57:49;;;;;;;11.23;9.70;;;;;;;21.96;97.00;100483.50;6244361;22;20016;-72
2022/06/05 01:00:24;;;;;;;10.85;9.23;;;;;;;21.92;97.30;100484.09;6244344;22;20004;-72
2022/06/05 01:02:54;;;;;;;11.35;9.95;;;;;;;21.87;97.39;100487.47;6244465;22;20027;-72
2022/06/05 01:05:21;;;;;;;10.18;9.00;;;;;;;21.84;97.33;100481.56;6244404;22;20083;-72
2022/06/05 01:07:47;;;;;;;11.68;9.88;;;;;;;21.79;97.73;100481.31;6244486;22;20065;-72
2022/06/05 01:10:14;;;;;;;11.75;9.98;;;;;;;21.71;97.99;100479.59;6244404;22;20428;-73
2022/06/05 01:12:46;;;;;;;13.43;11.00;;;;;;;21.72;98.65;100491.34;6244568;22;20040;-72
2022/06/05 01:15:26;;;;;;;12.82;11.55;;;;;;;21.68;98.94;100482.72;6244006;23;20008;-72
2022/06/05 01:18:03;;;;;;;11.95;10.75;;;;;;;21.64;99.36;100481.41;6244269;22;20000;-71
2022/06/05 01:20:36;;;;;;;13.82;11.95;;;;;;;21.57;99.83;100471.53;6244486;22;20014;-72
2022/06/05 01:23:09;;;;;;;12.02;10.63;;;;;;;21.62;99.71;100491.72;6244406;22;20015;-72
2022/06/05 01:26:05;;;;;;;14.95;11.40;;;;;;;21.58;99.97;100482.25;6244249;22;20007;-72
2022/06/05 01:28:36;;;;;;;15.32;12.77;;;;;;;21.56;100.00;100475.28;6244464;22;20007;-73
2022/06/05 01:31:18;;;;;;;16.58;13.38;;;;;;;21.53;100.00;100471.09;6244375;22;20008;-72
2022/06/05 01:34:19;;;;;;;17.17;13.48;;;;;;;21.51;100.00;100475.06;6243965;22;20500;-72
2022/06/05 01:36:55;;;;;;;22.38;15.63;;;;;;;21.52;100.00;100477.59;6244078;22;20023;-72
2022/06/05 01:39:53;;;;;;;19.02;16.05;;;;;;;21.52;100.00;100474.00;6244282;22;20431;-72
2022/06/05 01:42:32;;;;;;;19.33;14.98;;;;;;;21.46;100.00;100455.69;6233331;23;20008;-72
2022/06/05 01:45:02;;;;;;;18.83;14.88;;;;;;;21.52;100.00;100458.50;6243949;22;20004;-71
2022/06/05 01:47:43;;;;;;;16.98;14.48;;;;;;;21.44;100.00;100438.72;6243955;22;20007;-71
2022/06/05 01:50:15;;;;;;;18.35;14.73;;;;;;;21.54;100.00;100463.75;6244043;22;20000;-72
2022/06/05 01:52:57;;;;;;;16.35;13.52;;;;;;;21.52;100.00;100461.22;6243924;22;20004;-72
2022/06/05 01:56:04;;;;;;;17.45;13.35;;;;;;;21.52;100.00;100463.09;6243968;22;20020;-72
2022/06/05 01:58:46;;;;;;;16.88;15.07;;;;;;;21.44;100.00;100450.44;6121199;23;20045;-72
2022/06/05 02:01:17;;;;;;;21.35;16.40;;;;;;;21.46;100.00;100461.16;6237357;22;20356;-72
2022/06/05 02:03:50;;;;;;;20.80;16.20;;;;;;;21.46;100.00;100463.88;6244017;22;20078;-72
2022/06/05 02:06:23;;;;;;;20.55;17.02;;;;;;;21.35;100.00;100468.03;6243728;22;20485;-73
2022/06/05 02:08:54;;;;;;;25.65;17.83;;;;;;;21.41;100.00;100478.13;6243672;22;20005;-72
2022/06/05 02:11:28;;;;;;;23.77;18.67;;;;;;;21.41;100.00;100477.31;6243820;22;20012;-71
2022/06/05 02:14:00;;;;;;;25.35;20.17;;;;;;;21.38;100.00;100472.25;6243467;22;20024;-71
2022/06/05 02:16:28;;;;;;;22.83;18.48;;;;;;;21.36;100.00;100469.72;6243406;22;20000;-72
2022/06/05 02:18:56;;;;;;;19.65;17.50;;;;;;;21.28;100.00;100442.59;6243530;22;20007;-73
2022/06/05 02:21:22;;;;;;;23.80;18.85;;;;;;;21.27;100.00;100437.31;6243285;22;20004;-72
2022/06/05 02:23:47;;;;;;;18.63;16.15;;;;;;;21.32;100.00;100452.06;6243358;22;20094;-72
2022/06/05 02:26:13;;;;;;;18.67;14.98;;;;;;;21.30;100.00;100456.88;6243289;22;20000;-72
2022/06/05 02:28:38;;;;;;;16.20;14.52;;;;;;;21.30;100.00;100440.50;6242856;23;20531;-71
2022/06/05 02:31:24;;;;;;;16.67;14.85;;;;;;;21.30;100.00;100434.19;6243292;22;20462;-72
2022/06/05 02:34:16;;;;;;;15.35;13.73;;;;;;;21.27;100.00;100438.19;6243141;22;20011;-72
2022/06/05 02:36:51;;;;;;;17.35;14.88;;;;;;;21.24;100.00;100445.91;6243067;23;20486;-71
2022/06/05 02:39:41;;;;;;;21.02;16.55;;;;;;;21.21;100.00;100436.25;6242865;23;20065;-72
2022/06/05 02:42:20;;;;;;;17.13;14.02;;;;;;;21.24;100.00;100437.72;6242928;22;20126;-72
2022/06/05 02:44:58;;;;;;;15.05;12.75;;;;;;;21.23;100.00;100433.31;6242869;22;20004;-71
2022/06/05 02:47:49;;;;;;;20.73;17.17;;;;;;;21.16;100.00;100435.16;6243346;23;20126;-72
2022/06/05 02:50:23;;;;;;;20.42;17.75;;;;;;;21.16;100.00;100454.25;6242026;23;20010;-72
2022/06/05 02:52:50;;;;;;;22.20;18.05;;;;;;;21.06;100.00;100443.72;6243282;23;20601;-72
2022/06/05 02:55:20;;;;;;;19.05;16.35;;;;;;;21.06;100.00;100440.13;6243362;22;20012;-72
2022/06/05 02:57:46;;;;;;;18.80;15.80;;;;;;;21.10;100.00;100455.91;6242885;22;20348;-72
2022/06/05 03:00:20;;;;;;;20.00;16.83;;;;;;;21.09;100.00;100454.19;6243320;22;20314;-72
2022/06/05 03:05:32;;;;;;;20.60;17.67;;;;;;;21.01;100.00;100448.91;6243349;23;20070;-72
2022/06/05 03:07:58;;;;;;;19.63;16.77;;;;;;;21.06;100.00;100457.34;6243106;22;20773;-72
2022/06/05 03:10:23;;;;;;;16.70;13.98;;;;;;;21.05;100.00;100454.81;6243266;22;20010;-72
2022/06/05 03:12:49;;;;;;;16.83;14.57;;;;;;;21.03;100.00;100451.44;6241792;23;20090;-72
2022/06/05 03:15:15;;;;;;;18.00;14.07;;;;;;;21.04;100.00;100443.06;6243173;22;20034;-73
2022/06/05 03:17:42;;;;;;;18.42;15.00;;;;;;;21.03;100.00;100445.97;6242795;23;20000;-72
2022/06/05 03:20:09;;;;;;;21.58;15.63;;;;;;;21.02;100.00;100444.31;6243487;22;20010;-72
2022/06/05 03:22:35;;;;;;;20.52;16.35;;;;;;;21.00;100.00;100449.09;6243457;22;20011;-71
2022/06/05 03:25:01;;;;;;;19.17;15.48;;;;;;;20.98;100.00;100448.44;6243246;22;20015;-72
2022/06/05 03:27:27;;;;;;;19.08;16.05;;;;;;;20.93;100.00;100451.72;6243389;23;20482;-72
2022/06/05 03:29:52;;;;;;;14.93;12.18;;;;;;;20.94;100.00;100453.47;6243136;22;20014;-73
2022/06/05 03:32:18;;;;;;;16.20;14.45;;;;;;;20.96;100.00;100456.00;6242944;22;20007;-71
2022/06/05 03:34:43;;;;;;;17.58;13.00;;;;;;;20.99;100.00;100466.53;6243006;22;20053;-72
2022/06/05 03:37:09;;;;;;;18.35;14.88;;;;;;;20.92;100.00;100465.59;6243126;22;20016;-72
2022/06/05 03:39:34;;;;;;;17.65;14.27;;;;;;;20.87;100.00;100465.34;6242968;22;20007;-72
2022/06/05 03:42:00;;;;;;;13.15;11.85;;;;;;;20.98;100.00;100482.03;6242465;22;20332;-73
2022/06/05 03:44:27;;;;;;;16.35;14.20;;;;;;;20.98;100.00;100486.63;6242809;22;20000;-73
2022/06/05 03:46:52;;;;;;;12.52;10.70;;;;;;;20.93;100.00;100479.00;6242456;22;20038;-72
2022/06/05 03:49:18;;;;;;;17.17;15.13;;;;;;;20.98;100.00;100490.22;6238575;23;20004;-72
2022/06/05 03:51:45;;;;;;;16.58;13.27;;;;;;;21.02;100.00;100487.94;6242682;22;20011;-72
2022/06/05 03:54:11;;;;;;;17.30;14.55;;;;;;;20.98;100.00;100489.34;6266699;22;20031;-72
2022/06/05 03:56:37;;;;;;;15.48;13.88;;;;;;;21.00;100.00;100493.59;6243019;22;20008;-71
2022/06/05 03:59:05;;;;;;;18.77;15.80;;;;;;;20.95;100.00;100485.16;6242156;23;20024;-72
2022/06/05 04:01:30;;;;;;;18.70;14.70;;;;;;;21.02;100.00;100498.84;6242698;22;20016;-65
2022/06/05 04:03:56;;;;;;;17.13;15.07;;;;;;;20.99;100.00;100497.34;6242659;22;20058;-67
2022/06/05 04:06:28;;;;;;;18.00;14.82;;;;;;;21.03;100.00;100506.84;6242796;22;20008;-67
2022/06/05 04:08:55;;;;;;;15.48;13.20;;;;;;;21.05;100.00;100512.09;6242674;22;20003;-67
2022/06/05 04:11:21;;;;;;;16.67;14.20;;;;;;;21.05;100.00;100517.56;6242792;22;20008;-66
2022/06/05 04:13:47;;;;;;;19.80;15.75;;;;;;;21.11;100.00;100528.50;6242393;22;20011;-65
2022/06/05 04:16:16;;;;;;;20.05;15.00;;;;;;;21.17;100.00;100525.00;6242409;22;20409;-67
2022/06/05 04:18:42;;;;;;;19.33;15.07;;;;;;;21.23;100.00;100526.09;6242327;22;20004;-67
2022/06/05 04:21:10;;;;;;;18.77;15.52;;;;;;;21.38;100.00;100535.84;6242737;22;20034;-66
2022/06/05 04:23:35;;;;;;;16.60;14.48;;;;;;;21.46;100.00;100532.13;6242363;22;20094;-66
2022/06/05 04:26:01;;;;;;;17.10;13.68;;;;;;;21.57;100.00;100532.41;6242617;22;20028;-66
2022/06/05 04:28:27;;;;;;;15.90;13.98;;;;;;;21.67;99.08;100538.34;6242390;22;20003;-65
2022/06/05 04:30:52;;;;;;;16.88;13.90;;;;;;;21.75;98.25;100548.31;6242383;23;20011;-65
2022/06/05 04:33:18;;;;;;;16.23;13.80;;;;;;;21.79;97.68;100552.31;6240926;22;20033;-65
2022/06/05 04:35:44;;;;;;;17.40;13.32;;;;;;;21.82;97.27;100557.38;6241674;22;20003;-65
2022/06/05 04:38:11;;;;;;;16.90;12.60;;;;;;;21.87;97.21;100560.38;6241735;22;20019;-65
2022/06/05 04:40:36;;;;;;;14.32;12.13;;;;;;;21.83;96.99;100559.09;6241434;22;20028;-66
2022/06/05 04:43:02;;;;;;;17.77;13.13;;;;;;;21.88;96.71;100567.50;6241522;22;20389;-66
2022/06/05 04:45:27;;;;;;;18.55;13.77;;;;;;;21.91;96.84;100564.38;6239892;23;20004;-66
2022/06/05 04:47:53;;;;;;;19.75;13.45;;;;;;;21.90;96.45;100566.25;6241332;22;20026;-66
2022/06/05 04:50:18;;;;;;;16.75;13.18;;;;;;;21.95;96.28;100573.84;6242071;22;20363;-67
2022/06/05 04:52:44;;;;;;;18.67;14.48;;;;;;;21.93;95.94;100573.22;6243434;22;20012;-66
2022/06/05 04:55:09;;;;;;;21.92;14.57;;;;;;;21.93;95.96;100574.03;6243804;22;20062;-66
2022/06/05 04:57:36;;;;;;;17.17;15.38;;;;;;;21.91;95.98;100569.84;6243064;22;20012;-66
2022/06/05 05:00:05;;;;;;;16.58;13.48;;;;;;;21.82;96.00;100554.66;6241858;22;20015;-66
2022/06/05 05:02:30;;;;;;;17.98;16.05;;;;;;;21.89;96.04;100575.50;6241431;23;20015;-67
2022/06/05 05:04:57;;;;;;;18.88;15.02;;;;;;;21.92;95.96;100585.16;6241592;23;20095;-66
2022/06/05 05:07:23;;;;;;;19.13;14.98;;;;;;;21.87;96.07;100568.56;6243166;22;20000;-66
2022/06/05 05:09:48;;;;;;;17.80;14.60;;;;;;;21.94;96.18;100583.09;6243115;23;20074;-66
2022/06/05 05:12:15;;;;;;;18.08;16.13;;;;;;;21.95;96.49;100584.78;6243008;22;20050;-65
2022/06/05 05:14:41;;;;;;;19.27;16.02;;;;;;;21.95;96.71;100588.34;6243153;22;20058;-65
2022/06/05 05:17:07;;;;;;;19.08;15.07;;;;;;;21.94;96.64;100581.22;6242455;22;20423;-66
2022/06/05 05:19:32;;;;;;;20.55;16.60;;;;;;;21.92;96.85;100575.09;6242890;22;20004;-66
2022/06/05 05:21:58;;;;;;;20.63;17.08;;;;;;;21.91;97.06;100572.56;6241368;23;20004;-67
2022/06/05 05:24:23;;;;;;;22.30;16.92;;;;;;;21.97;97.22;100582.69;6243046;22;20023;-67
2022/06/05 05:26:49;;;;;;;17.13;15.27;;;;;;;21.96;97.17;100583.75;6242515;22;20000;-67
2022/06/05 05:29:14;;;;;;;15.88;14.18;;;;;;;22.02;97.28;100583.78;6241249;23;20008;-67
2022/06/05 05:31:44;;;;;;;16.85;14.90;;;;;;;22.11;97.17;100576.25;6243054;22;20079;-66
2022/06/05 05:34:10;;;;;;;16.55;13.82;;;;;;;22.25;96.95;100578.00;6242878;22;20000;-66
2022/06/05 05:36:36;;;;;;;13.30;10.73;;;;;;;22.40;96.36;100570.50;6266174;22;20459;-66
2022/06/05 05:42:05;;;;;;;11.13;9.85;;;;;;;22.79;93.56;100578.84;6242236;23;20042;-66
2022/06/05 05:44:42;;;;;;;10.63;8.77;;;;;;;22.96;91.90;100580.13;6242404;22;20014;-67
2022/06/05 05:47:12;;;;;;;10.38;9.30;;;;;;;23.14;89.91;100576.78;6242359;22;20395;-67
2022/06/05 05:49:38;;;;;;;10.73;9.50;;;;;;;23.23;88.95;100573.69;6242007;22;20011;-66
2022/06/05 05:52:05;;;;;;;7.72;7.00;;;;;;;23.34;88.05;100567.56;6241860;22;20433;-66
2022/06/05 05:54:30;;;;;;;10.25;7.63;;;;;;;23.52;86.00;100581.47;6242414;22;20016;-66
2022/06/05 05:56:56;;;;;;;6.63;6.03;;;;;;;23.67;86.20;100575.78;6241985;22;20008;-66
2022/06/05 05:59:21;;;;;;;8.88;6.22;;;;;;;23.85;84.87;100584.16;6240501;23;20015;-66
2022/06/05 06:01:47;;;;;;;7.70;6.90;;;;;;;23.94;83.49;100583.75;6242099;22;20012;-73
2022/06/05 06:04:13;;;;;;;6.28;5.68;;;;;;;24.04;81.83;100586.88;6242122;22;20075;-74
2022/06/05 06:06:44;;;;;;;6.70;5.90;;;;;;;24.00;79.91;100585.63;6241724;22;20004;-73
2022/06/05 06:09:10;;;;;;;6.05;4.97;;;;;;;24.01;80.41;100587.31;6242536;22;20012;-73
2022/06/05 06:11:36;;;;;;;7.68;6.75;;;;;;;23.98;80.66;100575.94;6240561;23;20004;-72
2022/06/05 06:14:02;;;;;;;10.80;8.50;;;;;;;24.02;80.63;100599.94;6240513;22;20030;-72
2022/06/05 06:16:28;;;;;;;8.95;8.13;;;;;;;24.01;80.93;100597.44;6241183;23;20035;-73
2022/06/05 06:18:54;;;;;;;10.55;8.27;;;;;;;23.92;81.65;100582.22;6242169;22;20487;-73
2022/06/05 06:21:20;;;;;;;12.00;8.57;;;;;;;23.90;82.37;100589.84;6240630;23;20003;-72
2022/06/05 06:23:46;;;;;;;8.82;7.93;;;;;;;23.88;83.67;100581.84;6242467;22;20030;-72
2022/06/05 06:26:11;;;;;;;13.63;10.52;;;;;;;23.89;83.10;100589.00;6242709;22;20015;-73
2022/06/05 06:28:37;;;;;;;9.15;8.25;;;;;;;23.96;83.19;100594.50;6240318;23;20000;-73
2022/06/05 06:31:11;;;;;;;11.15;9.88;;;;;;;23.87;81.80;100598.47;6242353;22;20038;-73
2022/06/05 06:33:37;;;;;;;9.95;8.65;;;;;;;23.86;82.42;100599.56;6242025;22;20425;-73
2022/06/05 06:36:05;;;;;;;13.98;8.40;;;;;;;23.90;82.77;100582.44;6242290;22;20004;-73
2022/06/05 06:38:32;;;;;;;8.18;7.38;;;;;;;23.90;82.03;100579.69;6242309;22;20058;-73
2022/06/05 06:41:10;;;;;;;9.20;7.25;;;;;;;24.01;80.48;100592.78;6240461;23;20007;-73
2022/06/05 06:43:35;;;;;;;7.45;6.47;;;;;;;24.18;81.00;100590.41;6242403;22;20045;-72
2022/06/05 06:46:01;;;;;;;8.98;8.07;;;;;;;24.27;79.32;100586.38;6242025;22;20420;-73
2022/06/05 06:48:28;;;;;;;7.03;6.35;;;;;;;24.43;78.82;100580.41;6245147;22;20368;-74
2022/06/05 06:50:56;;;;;;;9.98;8.00;;;;;;;24.52;77.64;100587.34;6244490;22;20080;-73
2022/06/05 06:53:22;;;;;;;8.13;7.32;;;;;;;24.55;76.95;100591.53;6244672;22;20011;-73
2022/06/05 06:55:49;;;;;;;10.85;8.35;;;;;;;24.51;75.58;100582.91;6242876;23;20012;-74
2022/06/05 06:58:14;;;;;;;9.95;8.13;;;;;;;24.58;75.98;100566.41;6244532;22;20412;-73
2022/06/05 07:00:40;;;;;;;10.55;8.38;;;;;;;24.63;75.65;100575.66;6244457;22;20079;-74
2022/06/05 07:03:06;;;;;;;9.15;8.27;;;;;;;24.59;75.87;100560.72;6244421;22;20000;-73
2022/06/05 07:05:32;;;;;;;8.30;7.50;;;;;;;24.77;74.97;100563.59;6244462;22;20077;-73
2022/06/05 07:07:57;;;;;;;7.78;6.22;;;;;;;24.89;75.16;100556.31;6242435;23;19992;-74
2022/06/05 07:10:23;;;;;;;8.43;7.57;;;;;;;25.02;74.10;100574.63;6244636;22;20011;-74
2022/06/05 07:12:49;;;;;;;8.10;7.32;;;;;;;24.99;73.84;100550.38;6243950;22;20011;-74
2022/06/05 07:15:14;;;;;;;7.25;6.55;;;;;;;25.12;73.06;100558.50;6244271;22;20012;-72
2022/06/05 07:17:40;;;;;;;7.25;6.55;;;;;;;25.16;73.35;100541.34;6243831;22;20078;-74
2022/06/05 07:20:07;;;;;;;9.13;7.65;;;;;;;25.31;71.32;100547.38;6244298;22;20075;-74
2022/06/05 07:22:33;;;;;;;8.13;7.18;;;;;;;25.25;70.30;100534.53;6244665;22;20004;-74
2022/06/05 07:24:59;;;;;;;7.38;6.57;;;;;;;25.36;70.25;100528.31;6244597;22;20027;-74
2022/06/05 07:27:25;;;;;;;9.05;7.28;;;;;;;25.48;70.31;100536.66;6244382;22;20008;-75
2022/06/05 07:29:51;;;;;;;8.95;6.32;;;;;;;25.59;70.02;100539.50;6244147;22;20014;-73
2022/06/05 07:32:17;;;;;;;7.13;6.20;;;;;;;25.70;69.39;100535.19;6244320;22;20007;-74
2022/06/05 07:34:43;;;;;;;6.53;5.90;;;;;;;25.77;69.22;100534.06;6244448;22;20008;-74
2022/06/05 07:37:08;;;;;;;12.60;7.00;;;;;;;25.95;68.31;100542.28;6244094;22;20329;-74
2022/06/05 07:39:34;;;;;;;9.50;6.32;;;;;;;25.98;67.49;100544.63;6244196;22;20476;-73
2022/06/05 07:42:00;;;;;;;6.50;5.80;;;;;;;26.11;67.43;100549.97;6243811;22;20004;-74
2022/06/05 07:44:26;;;;;;;9.45;7.85;;;;;;;26.21;65.84;100549.41;6242631;22;20077;-74
2022/06/05 07:46:53;;;;;;;9.00;6.25;;;;;;;26.25;65.88;100547.91;6241782;23;20092;-74
2022/06/05 07:49:18;;;;;;;7.70;6.35;;;;;;;26.27;65.88;100554.00;6243429;22;20007;-74
2022/06/05 07:54:31;;;;;;;6.47;5.88;;;;;;;26.34;65.93;100543.75;6242650;23;20026;-74
2022/06/05 07:57:09;;;;;;;6.43;5.53;;;;;;;26.45;66.08;100551.22;6242228;22;20008;-73
2022/06/05 07:59:39;;;;;;;6.93;6.28;;;;;;;26.57;65.20;100543.88;6242617;22;20436;-73
2022/06/05 08:02:13;;;;;;;6.88;6.00;;;;;;;26.67;64.89;100546.94;6242717;22;20324;-74
2022/06/05 08:04:39;;;;;;;7.47;6.53;;;;;;;26.74;63.85;100552.34;6241517;23;20024;-74
2022/06/05 08:07:07;;;;;;;7.75;6.93;;;;;;;26.71;63.52;100545.41;6242609;22;20374;-73
2022/06/05 08:09:33;;;;;;;7.50;6.78;;;;;;;26.70;63.01;100551.97;6242375;22;20011;-74
2022/06/05 08:12:00;;;;;;;8.88;7.10;;;;;;;26.66;63.38;100544.41;6242883;22;20007;-73
2022/06/05 08:14:27;;;;;;;7.45;6.10;;;;;;;26.76;63.78;100551.03;6240679;23;20011;-73
2022/06/05 08:16:53;;;;;;;7.97;5.30;;;;;;;26.78;63.02;100542.53;6242150;22;20437;-73
2022/06/05 08:19:21;;;;;;;7.97;6.97;;;;;;;26.74;62.66;100555.94;6242240;22;20087;-74
2022/06/05 08:21:48;;;;;;;7.20;6.50;;;;;;;26.71;62.58;100547.28;6241954;22;20008;-74
2022/06/05 08:24:14;;;;;;;7.60;6.78;;;;;;;26.66;62.25;100542.50;6242282;22;20024;-73
2022/06/05 08:26:39;;;;;;;7.05;5.75;;;;;;;26.73;63.16;100550.66;6244041;22;20004;-74
2022/06/05 08:29:05;;;;;;;9.18;6.05;;;;;;;26.74;62.58;100552.34;6244273;22;20119;-72
2022/06/05 08:31:32;;;;;;;7.68;6.30;;;;;;;26.73;62.11;100562.53;6244272;22;20134;-73
2022/06/05 08:33:58;;;;;;;6.75;6.15;;;;;;;26.72;62.00;100560.81;6244039;22;20007;-73
2022/06/05 08:36:24;;;;;;;8.27;6.85;;;;;;;26.72;62.28;100560.81;6242137;23;20004;-73
2022/06/05 08:42:05;;;;;;;6.97;6.05;;;;;;;26.85;62.27;100557.88;6244094;23;20073;-73
2022/06/05 08:44:47;;;;;;;7.80;6.95;;;;;;;26.78;61.03;100551.63;6242012;23;20121;-73
2022/06/05 08:47:20;;;;;;;7.13;6.35;;;;;;;26.82;61.31;100552.03;6243884;22;20007;-73
2022/06/05 08:50:03;;;;;;;8.02;7.05;;;;;;;26.88;61.01;100553.81;6243696;22;20008;-74
2022/06/05 08:52:56;;;;;;;8.23;7.00;;;;;;;26.88;61.79;100557.41;6242645;23;20004;-72
2022/06/05 08:55:25;;;;;;;7.63;6.72;;;;;;;26.88;60.86;100551.91;6243820;22;20440;-73
2022/06/05 08:57:55;;;;;;;7.55;6.93;;;;;;;26.95;60.68;100563.66;6243647;22;20479;-74
2022/06/05 09:00:32;;;;;;;9.35;6.47;;;;;;;26.92;61.01;100560.56;6243705;22;20372;-74
2022/06/05 09:03:22;;;;;;;9.57;7.70;;;;;;;26.98;61.11;100552.19;6241813;23;20014;-73
2022/06/05 09:05:51;;;;;;;8.20;7.40;;;;;;;27.03;60.69;100549.56;6243446;22;20023;-73
2022/06/05 09:08:20;;;;;;;7.70;6.90;;;;;;;27.06;59.90;100546.34;6243606;22;20489;-74
2022/06/05 09:11:00;;;;;;;9.60;7.20;;;;;;;27.14;59.94;100540.47;6241912;23;20063;-74
2022/06/05 09:13:42;;;;;;;6.20;5.60;;;;;;;27.25;60.00;100539.72;6242066;23;20158;-74
2022/06/05 09:16:14;;;;;;;7.57;6.80;;;;;;;27.23;59.30;100547.38;6243490;22;20121;-74
2022/06/05 09:18:46;;;;;;;7.75;6.63;;;;;;;27.27;59.93;100554.06;6243165;22;20000;-74
2022/06/05 09:21:23;;;;;;;7.00;6.32;;;;;;;27.38;59.24;100558.78;6241973;23;20015;-73
2022/06/05 09:24:17;;;;;;;8.57;6.78;;;;;;;27.41;58.11;100551.94;6243118;22;20393;-74
2022/06/05 09:26:49;;;;;;;6.72;6.13;;;;;;;27.47;58.04;100549.06;6243279;23;20019;-74
2022/06/05 09:29:49;;;;;;;7.85;7.07;;;;;;;27.52;56.62;100553.84;6243422;23;20062;-74
2022/06/05 09:32:39;;;;;;;8.05;6.18;;;;;;;27.59;57.40;100547.16;6204150;22;20485;-75
2022/06/05 09:35:23;;;;;;;7.93;6.15;;;;;;;27.61;55.98;100542.25;6240757;23;20317;-72
2022/06/05 09:37:58;;;;;;;5.93;5.32;;;;;;;27.73;56.17;100537.53;6239275;22;20387;-73
2022/06/05 09:40:39;;;;;;;7.18;6.50;;;;;;;27.74;55.97;100541.16;6242981;22;20372;-73
2022/06/05 09:43:37;;;;;;;5.97;5.38;;;;;;;27.80;55.86;100535.53;6239591;22;20014;-74
2022/06/05 09:46:14;;;;;;;7.22;6.30;;;;;;;27.84;55.94;100533.97;6222736;23;20046;-75
2022/06/05 09:48:51;;;;;;;6.85;5.95;;;;;;;27.77;54.62;100536.00;6240949;22;20030;-73
2022/06/05 09:51:19;;;;;;;6.95;6.07;;;;;;;27.72;55.26;100538.63;6241740;22;20004;-74
2022/06/05 09:54:14;;;;;;;7.20;6.50;;;;;;;27.62;55.55;100524.63;6240357;22;20515;-74
2022/06/05 09:59:44;;;;;;;7.82;6.30;;;;;;;27.75;55.77;100538.16;6240797;22;19926;-75
2022/06/05 10:02:11;;;;;;;7.07;6.30;;;;;;;27.71;55.23;100539.72;6240630;22;20102;-74
2022/06/05 10:04:38;;;;;;;7.80;6.05;;;;;;;27.69;54.33;100532.75;6241233;22;20639;-73
2022/06/05 10:07:18;;;;;;;8.50;5.97;;;;;;;27.66;55.02;100545.09;6241271;22;20412;-75
2022/06/05 10:09:45;;;;;;;6.95;5.90;;;;;;;27.63;54.50;100544.75;6240467;22;20011;-73
2022/06/05 10:12:25;;;;;;;7.47;6.47;;;;;;;27.53;54.44;100536.25;6239724;23;20008;-74
2022/06/05 10:15:19;;;;;;;6.95;5.57;;;;;;;27.62;55.58;100545.81;6240373;22;20012;-74
2022/06/05 10:18:02;;;;;;;8.15;5.72;;;;;;;27.65;55.21;100543.44;6238193;23;19996;-73
2022/06/05 10:20:41;;;;;;;6.22;5.63;;;;;;;27.77;54.68;100548.94;6239362;23;20004;-72
2022/06/05 10:23:19;;;;;;;5.93;5.43;;;;;;;27.71;54.04;100550.75;6241039;22;20035;-74
2022/06/05 10:26:06;;;;;;;6.07;5.47;;;;;;;27.75;54.41;100549.19;6240251;22;20099;-74
2022/06/05 10:28:38;;;;;;;6.50;5.45;;;;;;;27.82;54.44;100555.41;6239406;23;20095;-74
2022/06/05 10:31:14;;;;;;;5.97;5.38;;;;;;;27.90;53.56;100554.25;6239267;22;20316;-75
2022/06/05 10:33:49;;;;;;;8.00;6.22;;;;;;;27.86;54.67;100558.56;6238532;23;20007;-74
2022/06/05 10:36:41;;;;;;;6.38;5.78;;;;;;;27.73;54.52;100556.84;6240753;22;20039;-74
2022/06/05 10:39:31;;;;;;;6.18;5.57;;;;;;;27.80;54.27;100559.50;6224910;22;20437;-74
2022/06/05 10:42:07;;;;;;;6.28;5.68;;;;;;;27.82;54.61;100558.16;6240091;22;20000;-74
2022/06/05 10:44:44;;;;;;;7.15;5.82;;;;;;;27.84;54.60;100545.00;6240764;22;20333;-74
2022/06/05 10:47:44;;;;;;;7.43;5.82;;;;;;;27.93;53.70;100549.09;6239860;22;20015;-75
2022/06/05 10:50:25;;;;;;;6.28;5.30;;;;;;;28.01;53.76;100536.81;6240423;22;20008;-75
2022/06/05 10:53:15;;;;;;;6.57;5.85;;;;;;;27.98;53.72;100545.59;6239927;22;20015;-75
2022/06/05 10:56:05;;;;;;;5.70;5.20;;;;;;;27.90;53.19;100529.41;6238875;23;20016;-74
2022/06/05 10:59:16;;;;;;;8.23;5.22;;;;;;;27.90;53.11;100524.75;6238552;23;20396;-75
2022/06/05 11:01:53;;;;;;;6.80;4.82;;;;;;;27.90;53.61;100527.50;6221135;22;20019;-74
2022/06/05 11:04:42;;;;;;;6.88;5.45;;;;;;;28.00;53.30;100518.59;6238625;23;20011;-73
2022/06/05 11:07:29;;;;;;;6.07;5.47;;;;;;;28.03;53.63;100518.97;6240244;22;20004;-73
2022/06/05 11:10:03;;;;;;;5.50;4.88;;;;;;;28.16;53.22;100523.38;6240384;23;20000;-74
2022/06/05 11:15:45;;;;;;;8.27;5.72;;;;;;;28.19;53.16;100506.34;6240329;23;20011;-74
2022/06/05 11:18:20;;;;;;;7.00;5.93;;;;;;;28.14;52.50;100503.47;6239917;22;20399;-74
2022/06/05 11:21:15;;;;;;;7.22;5.93;;;;;;;28.03;52.24;100496.91;6239976;22;20432;-74
2022/06/05 11:23:42;;;;;;;6.80;5.88;;;;;;;27.99;53.18;100489.38;6237375;22;20011;-74
2022/06/05 11:26:28;;;;;;;8.05;5.43;;;;;;;27.91;52.89;100498.00;6238749;23;20402;-73
2022/06/05 11:29:30;;;;;;;6.25;4.75;;;;;;;27.83;52.77;100487.31;6237639;23;20087;-74
2022/06/05 11:32:15;;;;;;;5.82;5.22;;;;;;;27.80;53.29;100479.53;6239330;22;20050;-74
2022/06/05 11:35:10;;;;;;;6.18;5.57;;;;;;;27.90;53.39;100499.94;6239740;22;20087;-75
2022/06/05 11:37:50;;;;;;;7.57;5.93;;;;;;;27.88;53.00;100482.78;6240398;23;20058;-74
2022/06/05 11:40:40;;;;;;;6.88;5.40;;;;;;;27.88;52.83;100496.56;6239061;23;20012;-73
2022/06/05 11:43:30;;;;;;;5.50;4.90;;;;;;;27.79;52.41;100478.69;6240347;23;20087;-74
2022/06/05 11:46:10;;;;;;;6.40;5.28;;;;;;;27.87;52.50;100489.41;6237277;23;20035;-74
2022/06/05 11:49:07;;;;;;;8.65;5.22;;;;;;;27.84;52.44;100473.31;6240554;22;20000;-74
2022/06/05 11:51:48;;;;;;;4.80;4.40;;;;;;;27.92;52.91;100480.41;6240316;22;20018;-73
2022/06/05 11:54:25;;;;;;;5.65;4.97;;;;;;;27.72;52.01;100477.97;6238575;23;19996;-74
2022/06/05 11:57:10;;;;;;;5.97;5.38;;;;;;;27.79;52.83;100472.34;6239938;22;20427;-74
2022/06/05 12:00:04;;;;;;;5.50;4.95;;;;;;;27.73;53.00;100481.59;6240677;22;20023;-74